sensor_id;sensor_type;location;lat;lon;timestamp;pressure;altitude;pressure_sealevel;temperature;humidity
73518;BME280;61766;60.318;25.044;2023-08-31T00:01:58;100012.60;;;23.90;46.92
73518;BME280;61766;60.318;25.044;2023-08-31T00:04:23;100018.21;;;24.37;47.03
73518;BME280;61766;60.318;25.044;2023-08-31T00:06:49;100019.05;;;24.22;46.79
73518;BME280;61766;60.318;25.044;2023-08-31T00:09:14;100018.54;;;24.09;46.45
73518;BME280;61766;60.318;25.044;2023-08-31T00:11:39;100014.80;;;24.23;46.71
73518;BME280;61766;60.318;25.044;2023-08-31T00:14:05;100010.10;;;23.97;46.61
73518;BME280;61766;60.318;25.044;2023-08-31T00:16:30;100014.27;;;24.30;46.99
73518;BME280;61766;60.318;25.044;2023-08-31T00:18:56;100018.74;;;23.89;46.82
73518;BME280;61766;60.318;25.044;2023-08-31T00:21:21;100025.97;;;23.93;46.87
73518;BME280;61766;60.318;25.044;2023-08-31T00:23:47;100026.88;;;23.93;46.72
73518;BME280;61766;60.318;25.044;2023-08-31T00:26:12;100020.79;;;23.99;46.64
73518;BME280;61766;60.318;25.044;2023-08-31T00:28:37;100018.93;;;24.03;46.65
73518;BME280;61766;60.318;25.044;2023-08-31T00:31:06;100017.93;;;24.03;46.70
73518;BME280;61766;60.318;25.044;2023-08-31T00:33:29;100016.85;;;24.07;46.55
73518;BME280;61766;60.318;25.044;2023-08-31T00:35:54;100016.52;;;24.13;46.45
73518;BME280;61766;60.318;25.044;2023-08-31T00:38:19;100008.40;;;24.13;46.44
73518;BME280;61766;60.318;25.044;2023-08-31T00:40:45;100000.99;;;24.18;46.15
73518;BME280;61766;60.318;25.044;2023-08-31T00:43:10;99999.92;;;24.14;46.28
73518;BME280;61766;60.318;25.044;2023-08-31T00:45:36;99995.12;;;24.01;46.65
73518;BME280;61766;60.318;25.044;2023-08-31T00:48:01;99991.02;;;24.02;46.64
73518;BME280;61766;60.318;25.044;2023-08-31T00:50:27;99986.79;;;23.98;46.87
73518;BME280;61766;60.318;25.044;2023-08-31T00:52:52;99988.28;;;24.04;46.66
73518;BME280;61766;60.318;25.044;2023-08-31T00:55:17;99989.08;;;23.82;47.07
73518;BME280;61766;60.318;25.044;2023-08-31T00:57:43;99986.13;;;23.36;49.07
73518;BME280;61766;60.318;25.044;2023-08-31T01:00:10;99984.96;;;23.08;50.16
73518;BME280;61766;60.318;25.044;2023-08-31T01:02:40;99981.42;;;23.14;50.16
73518;BME280;61766;60.318;25.044;2023-08-31T01:05:03;99980.69;;;23.29;49.99
73518;BME280;61766;60.318;25.044;2023-08-31T01:07:31;99982.17;;;23.42;49.80
73518;BME280;61766;60.318;25.044;2023-08-31T01:09:55;99985.73;;;23.14;49.56
73518;BME280;61766;60.318;25.044;2023-08-31T01:12:18;99984.80;;;23.32;49.07
73518;BME280;61766;60.318;25.044;2023-08-31T01:14:44;99977.76;;;23.19;49.94
73518;BME280;61766;60.318;25.044;2023-08-31T01:17:07;99965.07;;;23.26;50.44
73518;BME280;61766;60.318;25.044;2023-08-31T01:19:40;99948.93;;;23.00;50.39
73518;BME280;61766;60.318;25.044;2023-08-31T01:21:59;99928.46;;;22.77;50.83
73518;BME280;61766;60.318;25.044;2023-08-31T01:24:23;99912.17;;;23.06;50.28
73518;BME280;61766;60.318;25.044;2023-08-31T01:26:49;99889.99;;;23.48;49.94
73518;BME280;61766;60.318;25.044;2023-08-31T01:29:14;99864.23;;;23.01;50.34
73518;BME280;61766;60.318;25.044;2023-08-31T01:31:45;99836.42;;;23.15;50.18
73518;BME280;61766;60.318;25.044;2023-08-31T01:34:06;99821.64;;;23.10;50.26
73518;BME280;61766;60.318;25.044;2023-08-31T01:36:33;99801.36;;;23.05;50.42
73518;BME280;61766;60.318;25.044;2023-08-31T01:39:02;99781.19;;;22.97;50.55
73518;BME280;61766;60.318;25.044;2023-08-31T01:41:24;99780.43;;;22.91;50.16
73518;BME280;61766;60.318;25.044;2023-08-31T01:43:50;99789.00;;;22.82;50.71
73518;BME280;61766;60.318;25.044;2023-08-31T01:46:14;99792.34;;;22.91;50.54
73518;BME280;61766;60.318;25.044;2023-08-31T01:48:42;99784.72;;;23.09;49.96
73518;BME280;61766;60.318;25.044;2023-08-31T01:51:06;99780.24;;;23.29;49.60
73518;BME280;61766;60.318;25.044;2023-08-31T01:53:31;99772.89;;;23.15;49.93
73518;BME280;61766;60.318;25.044;2023-08-31T01:55:57;99795.91;;;22.92;50.17
73518;BME280;61766;60.318;25.044;2023-08-31T01:58:22;99824.34;;;22.11;51.30
73518;BME280;61766;60.318;25.044;2023-08-31T02:00:48;99844.42;;;21.58;53.38
73518;BME280;61766;60.318;25.044;2023-08-31T02:03:14;99845.07;;;21.55;54.14
73518;BME280;61766;60.318;25.044;2023-08-31T02:05:39;99838.51;;;21.92;53.93
73518;BME280;61766;60.318;25.044;2023-08-31T02:08:05;99844.05;;;22.33;52.63
73518;BME280;61766;60.318;25.044;2023-08-31T02:10:31;99848.51;;;22.62;51.98
73518;BME280;61766;60.318;25.044;2023-08-31T02:12:56;99855.73;;;22.31;52.11
73518;BME280;61766;60.318;25.044;2023-08-31T02:15:22;99854.66;;;22.31;52.74
73518;BME280;61766;60.318;25.044;2023-08-31T02:17:48;99848.40;;;22.23;52.48
73518;BME280;61766;60.318;25.044;2023-08-31T02:20:14;99846.55;;;22.88;51.57
73518;BME280;61766;60.318;25.044;2023-08-31T02:22:39;99850.56;;;23.00;51.05
73518;BME280;61766;60.318;25.044;2023-08-31T02:25:05;99854.74;;;22.30;51.99
73518;BME280;61766;60.318;25.044;2023-08-31T02:27:30;99864.13;;;22.28;53.04
73518;BME280;61766;60.318;25.044;2023-08-31T02:29:56;99868.80;;;22.37;53.01
73518;BME280;61766;60.318;25.044;2023-08-31T02:32:21;99873.52;;;22.60;52.22
73518;BME280;61766;60.318;25.044;2023-08-31T02:34:47;99881.99;;;22.17;53.69
73518;BME280;61766;60.318;25.044;2023-08-31T02:37:13;99889.98;;;22.49;52.96
73518;BME280;61766;60.318;25.044;2023-08-31T02:39:38;99896.11;;;22.88;52.12
73518;BME280;61766;60.318;25.044;2023-08-31T02:42:04;99897.57;;;23.01;51.91
73518;BME280;61766;60.318;25.044;2023-08-31T02:44:30;99896.63;;;22.97;51.47
73518;BME280;61766;60.318;25.044;2023-08-31T02:46:55;99895.52;;;23.30;50.66
73518;BME280;61766;60.318;25.044;2023-08-31T02:49:21;99899.66;;;23.25;50.67
73518;BME280;61766;60.318;25.044;2023-08-31T02:51:47;99898.43;;;23.02;51.27
73518;BME280;61766;60.318;25.044;2023-08-31T02:54:12;99899.02;;;22.65;52.61
73518;BME280;61766;60.318;25.044;2023-08-31T02:56:38;99898.26;;;21.75;54.47
73518;BME280;61766;60.318;25.044;2023-08-31T02:59:04;99902.97;;;21.93;53.63
73518;BME280;61766;60.318;25.044;2023-08-31T03:01:29;99901.11;;;22.51;53.32
73518;BME280;61766;60.318;25.044;2023-08-31T03:03:55;99895.09;;;22.24;53.16
73518;BME280;61766;60.318;25.044;2023-08-31T03:06:20;99905.81;;;21.99;54.68
73518;BME280;61766;60.318;25.044;2023-08-31T03:08:46;99900.46;;;22.58;53.26
73518;BME280;61766;60.318;25.044;2023-08-31T03:11:12;99901.34;;;21.97;53.92
73518;BME280;61766;60.318;25.044;2023-08-31T03:13:37;99901.12;;;22.13;54.03
73518;BME280;61766;60.318;25.044;2023-08-31T03:16:03;99901.49;;;21.98;53.61
73518;BME280;61766;60.318;25.044;2023-08-31T03:18:29;99902.94;;;21.98;54.49
73518;BME280;61766;60.318;25.044;2023-08-31T03:20:54;99899.81;;;21.81;54.08
73518;BME280;61766;60.318;25.044;2023-08-31T03:23:20;99895.37;;;21.35;55.53
73518;BME280;61766;60.318;25.044;2023-08-31T03:25:46;99897.54;;;20.97;57.59
73518;BME280;61766;60.318;25.044;2023-08-31T03:28:12;99887.76;;;20.43;58.64
73518;BME280;61766;60.318;25.044;2023-08-31T03:30:37;99883.06;;;19.82;60.05
73518;BME280;61766;60.318;25.044;2023-08-31T03:33:03;99890.70;;;20.34;59.68
73518;BME280;61766;60.318;25.044;2023-08-31T03:35:28;99888.83;;;20.39;59.55
73518;BME280;61766;60.318;25.044;2023-08-31T03:37:54;99893.24;;;20.16;59.96
73518;BME280;61766;60.318;25.044;2023-08-31T03:40:20;99895.79;;;20.80;58.47
73518;BME280;61766;60.318;25.044;2023-08-31T03:42:45;99903.32;;;20.72;58.60
73518;BME280;61766;60.318;25.044;2023-08-31T03:45:11;99895.90;;;19.88;59.94
73518;BME280;61766;60.318;25.044;2023-08-31T03:47:37;99905.57;;;19.82;61.20
73518;BME280;61766;60.318;25.044;2023-08-31T03:50:03;99886.82;;;20.34;60.11
73518;BME280;61766;60.318;25.044;2023-08-31T03:52:28;99889.65;;;20.45;59.88
73518;BME280;61766;60.318;25.044;2023-08-31T03:54:54;99891.37;;;20.27;60.18
73518;BME280;61766;60.318;25.044;2023-08-31T03:57:19;99886.36;;;19.97;60.91
73518;BME280;61766;60.318;25.044;2023-08-31T03:59:45;99884.29;;;19.77;61.85
73518;BME280;61766;60.318;25.044;2023-08-31T04:02:11;99890.33;;;18.89;63.12
73518;BME280;61766;60.318;25.044;2023-08-31T04:04:36;99891.98;;;18.80;63.75
73518;BME280;61766;60.318;25.044;2023-08-31T04:07:01;99887.71;;;20.11;60.55
73518;BME280;61766;60.318;25.044;2023-08-31T04:09:27;99890.52;;;19.68;61.51
73518;BME280;61766;60.318;25.044;2023-08-31T04:11:53;99888.72;;;19.31;62.23
73518;BME280;61766;60.318;25.044;2023-08-31T04:14:18;99888.80;;;18.97;63.54
73518;BME280;61766;60.318;25.044;2023-08-31T04:16:44;99885.30;;;19.65;61.62
73518;BME280;61766;60.318;25.044;2023-08-31T04:19:10;99889.00;;;19.12;62.75
73518;BME280;61766;60.318;25.044;2023-08-31T04:21:36;99891.97;;;19.78;61.36
73518;BME280;61766;60.318;25.044;2023-08-31T04:24:01;99887.51;;;20.32;60.06
73518;BME280;61766;60.318;25.044;2023-08-31T04:26:27;99888.22;;;19.96;60.75
73518;BME280;61766;60.318;25.044;2023-08-31T04:28:52;99887.55;;;20.10;60.40
73518;BME280;61766;60.318;25.044;2023-08-31T04:31:18;99888.41;;;19.55;61.82
73518;BME280;61766;60.318;25.044;2023-08-31T04:33:44;99893.23;;;19.09;62.90
73518;BME280;61766;60.318;25.044;2023-08-31T04:36:10;99892.36;;;20.04;60.40
73518;BME280;61766;60.318;25.044;2023-08-31T04:38:37;99892.34;;;20.45;59.23
73518;BME280;61766;60.318;25.044;2023-08-31T04:41:02;99897.90;;;20.60;59.45
73518;BME280;61766;60.318;25.044;2023-08-31T04:43:26;99893.85;;;20.32;59.66
73518;BME280;61766;60.318;25.044;2023-08-31T04:45:52;99891.22;;;20.19;59.94
73518;BME280;61766;60.318;25.044;2023-08-31T04:48:17;99887.77;;;20.06;60.07
73518;BME280;61766;60.318;25.044;2023-08-31T04:50:43;99884.66;;;20.32;59.91
73518;BME280;61766;60.318;25.044;2023-08-31T04:53:09;99883.74;;;20.81;58.93
73518;BME280;61766;60.318;25.044;2023-08-31T04:55:34;99884.04;;;20.45;58.57
73518;BME280;61766;60.318;25.044;2023-08-31T04:58:00;99887.71;;;20.08;59.57
73518;BME280;61766;60.318;25.044;2023-08-31T05:00:26;99892.06;;;18.78;63.35
73518;BME280;61766;60.318;25.044;2023-08-31T05:02:51;99883.15;;;19.79;61.06
73518;BME280;61766;60.318;25.044;2023-08-31T05:05:17;99879.17;;;19.35;62.04
73518;BME280;61766;60.318;25.044;2023-08-31T05:07:43;99881.85;;;19.28;62.87
73518;BME280;61766;60.318;25.044;2023-08-31T05:10:10;99883.23;;;19.14;62.71
73518;BME280;61766;60.318;25.044;2023-08-31T05:12:34;99880.76;;;20.08;60.63
73518;BME280;61766;60.318;25.044;2023-08-31T05:15:00;99882.85;;;20.06;60.38
73518;BME280;61766;60.318;25.044;2023-08-31T05:17:25;99880.82;;;19.61;61.29
73518;BME280;61766;60.318;25.044;2023-08-31T05:19:51;99877.44;;;19.75;61.69
73518;BME280;61766;60.318;25.044;2023-08-31T05:22:17;99872.04;;;19.98;60.53
73518;BME280;61766;60.318;25.044;2023-08-31T05:24:43;99868.82;;;19.57;61.42
73518;BME280;61766;60.318;25.044;2023-08-31T05:27:08;99869.96;;;20.38;59.48
73518;BME280;61766;60.318;25.044;2023-08-31T05:29:33;99871.66;;;20.90;58.39
73518;BME280;61766;60.318;25.044;2023-08-31T05:31:59;99864.32;;;20.75;57.72
73518;BME280;61766;60.318;25.044;2023-08-31T05:34:25;99860.93;;;21.41;56.51
73518;BME280;61766;60.318;25.044;2023-08-31T05:36:50;99860.76;;;21.17;56.01
73518;BME280;61766;60.318;25.044;2023-08-31T05:39:16;99853.85;;;21.86;54.55
73518;BME280;61766;60.318;25.044;2023-08-31T05:41:43;99856.58;;;22.37;53.58
73518;BME280;61766;60.318;25.044;2023-08-31T05:44:08;99859.48;;;22.30;52.80
73518;BME280;61766;60.318;25.044;2023-08-31T05:46:33;99862.64;;;22.45;52.51
73518;BME280;61766;60.318;25.044;2023-08-31T05:48:59;99862.82;;;22.53;51.80
73518;BME280;61766;60.318;25.044;2023-08-31T05:51:24;99863.73;;;22.35;51.78
73518;BME280;61766;60.318;25.044;2023-08-31T05:53:50;99866.69;;;22.75;52.12
73518;BME280;61766;60.318;25.044;2023-08-31T05:56:16;99868.08;;;22.09;52.87
73518;BME280;61766;60.318;25.044;2023-08-31T05:58:41;99869.77;;;21.99;53.10
73518;BME280;61766;60.318;25.044;2023-08-31T06:01:07;99867.54;;;22.22;53.19
73518;BME280;61766;60.318;25.044;2023-08-31T06:03:33;99874.35;;;20.90;56.68
73518;BME280;61766;60.318;25.044;2023-08-31T06:05:59;99866.96;;;20.73;56.43
73518;BME280;61766;60.318;25.044;2023-08-31T06:08:24;99866.76;;;21.24;56.06
73518;BME280;61766;60.318;25.044;2023-08-31T06:10:50;99870.86;;;21.55;55.27
73518;BME280;61766;60.318;25.044;2023-08-31T06:13:15;99868.90;;;21.63;55.39
73518;BME280;61766;60.318;25.044;2023-08-31T06:15:41;99862.49;;;21.78;54.48
73518;BME280;61766;60.318;25.044;2023-08-31T06:18:07;99865.32;;;21.74;54.59
73518;BME280;61766;60.318;25.044;2023-08-31T06:20:32;99866.37;;;21.85;54.27
73518;BME280;61766;60.318;25.044;2023-08-31T06:22:58;99869.24;;;21.61;54.13
73518;BME280;61766;60.318;25.044;2023-08-31T06:25:23;99870.49;;;21.61;54.15
73518;BME280;61766;60.318;25.044;2023-08-31T06:27:50;99867.43;;;22.30;52.71
73518;BME280;61766;60.318;25.044;2023-08-31T06:30:15;99869.41;;;22.36;53.15
73518;BME280;61766;60.318;25.044;2023-08-31T06:32:40;99870.38;;;22.25;53.01
73518;BME280;61766;60.318;25.044;2023-08-31T06:35:06;99876.41;;;21.89;54.06
73518;BME280;61766;60.318;25.044;2023-08-31T06:37:31;99876.51;;;21.99;54.15
73518;BME280;61766;60.318;25.044;2023-08-31T06:39:57;99875.45;;;22.10;53.48
73518;BME280;61766;60.318;25.044;2023-08-31T06:42:22;99873.86;;;22.21;53.70
73518;BME280;61766;60.318;25.044;2023-08-31T06:44:49;99871.80;;;21.92;54.27
73518;BME280;61766;60.318;25.044;2023-08-31T06:47:13;99874.34;;;21.66;54.78
73518;BME280;61766;60.318;25.044;2023-08-31T06:49:39;99867.85;;;21.76;54.21
73518;BME280;61766;60.318;25.044;2023-08-31T06:52:05;99871.20;;;21.23;55.72
73518;BME280;61766;60.318;25.044;2023-08-31T06:54:30;99869.70;;;21.22;55.91
73518;BME280;61766;60.318;25.044;2023-08-31T06:56:55;99874.90;;;21.10;56.85
73518;BME280;61766;60.318;25.044;2023-08-31T06:59:20;99871.94;;;20.92;56.88
73518;BME280;61766;60.318;25.044;2023-08-31T07:01:46;99867.48;;;21.31;56.74
73518;BME280;61766;60.318;25.044;2023-08-31T07:04:12;99864.41;;;21.30;56.58
73518;BME280;61766;60.318;25.044;2023-08-31T07:06:38;99862.14;;;21.19;56.42
73518;BME280;61766;60.318;25.044;2023-08-31T07:09:03;99857.83;;;21.63;55.97
73518;BME280;61766;60.318;25.044;2023-08-31T07:11:28;99854.46;;;21.53;55.63
73518;BME280;61766;60.318;25.044;2023-08-31T07:13:53;99859.03;;;20.46;58.02
73518;BME280;61766;60.318;25.044;2023-08-31T07:16:19;99852.30;;;21.16;56.96
73518;BME280;61766;60.318;25.044;2023-08-31T07:18:45;99855.00;;;21.13;57.31
73518;BME280;61766;60.318;25.044;2023-08-31T07:21:10;99853.11;;;21.31;57.32
73518;BME280;61766;60.318;25.044;2023-08-31T07:23:35;99853.13;;;20.94;56.91
73518;BME280;61766;60.318;25.044;2023-08-31T07:26:01;99855.67;;;21.36;57.24
73518;BME280;61766;60.318;25.044;2023-08-31T07:28:26;99857.27;;;20.58;59.08
73518;BME280;61766;60.318;25.044;2023-08-31T07:33:17;99856.27;;;21.03;57.49
73518;BME280;61766;60.318;25.044;2023-08-31T07:35:43;99854.48;;;21.17;56.79
73518;BME280;61766;60.318;25.044;2023-08-31T07:38:08;99848.66;;;21.12;56.79
73518;BME280;61766;60.318;25.044;2023-08-31T07:40:34;99844.50;;;21.32;55.79
73518;BME280;61766;60.318;25.044;2023-08-31T07:43:00;99844.68;;;21.56;56.21
73518;BME280;61766;60.318;25.044;2023-08-31T07:45:25;99851.51;;;21.26;57.51
73518;BME280;61766;60.318;25.044;2023-08-31T07:47:51;99851.70;;;20.97;57.59
73518;BME280;61766;60.318;25.044;2023-08-31T07:50:16;99852.79;;;19.83;60.58
73518;BME280;61766;60.318;25.044;2023-08-31T07:52:41;99851.41;;;20.51;59.51
73518;BME280;61766;60.318;25.044;2023-08-31T07:55:08;99843.61;;;20.48;59.82
73518;BME280;61766;60.318;25.044;2023-08-31T07:57:32;99840.05;;;20.80;59.04
73518;BME280;61766;60.318;25.044;2023-08-31T07:59:57;99838.19;;;20.20;59.72
73518;BME280;61766;60.318;25.044;2023-08-31T08:02:23;99841.34;;;21.07;58.45
73518;BME280;61766;60.318;25.044;2023-08-31T08:04:48;99841.90;;;20.81;59.10
73518;BME280;61766;60.318;25.044;2023-08-31T08:07:14;99842.99;;;20.42;60.19
73518;BME280;61766;60.318;25.044;2023-08-31T08:09:39;99841.29;;;20.76;59.33
73518;BME280;61766;60.318;25.044;2023-08-31T08:12:05;99842.80;;;19.36;62.08
73518;BME280;61766;60.318;25.044;2023-08-31T08:14:32;99844.85;;;19.74;61.79
73518;BME280;61766;60.318;25.044;2023-08-31T08:16:56;99838.81;;;20.11;62.02
73518;BME280;61766;60.318;25.044;2023-08-31T08:19:25;99836.98;;;19.98;62.38
73518;BME280;61766;60.318;25.044;2023-08-31T08:21:47;99837.27;;;19.51;63.16
73518;BME280;61766;60.318;25.044;2023-08-31T08:24:13;99826.50;;;19.63;63.46
73518;BME280;61766;60.318;25.044;2023-08-31T08:26:38;99830.59;;;20.59;61.35
73518;BME280;61766;60.318;25.044;2023-08-31T08:29:03;99829.36;;;20.30;61.54
73518;BME280;61766;60.318;25.044;2023-08-31T08:31:29;99828.97;;;20.40;60.64
73518;BME280;61766;60.318;25.044;2023-08-31T08:33:54;99823.67;;;20.54;60.14
73518;BME280;61766;60.318;25.044;2023-08-31T08:36:20;99820.77;;;20.36;60.27
73518;BME280;61766;60.318;25.044;2023-08-31T08:38:45;99822.77;;;20.64;59.84
73518;BME280;61766;60.318;25.044;2023-08-31T08:41:10;99822.85;;;21.13;58.57
73518;BME280;61766;60.318;25.044;2023-08-31T08:43:36;99825.71;;;21.02;58.95
73518;BME280;61766;60.318;25.044;2023-08-31T08:46:05;99827.24;;;20.29;60.47
73518;BME280;61766;60.318;25.044;2023-08-31T08:48:27;99825.63;;;19.92;61.52
73518;BME280;61766;60.318;25.044;2023-08-31T08:50:53;99818.86;;;20.84;59.44
73518;BME280;61766;60.318;25.044;2023-08-31T08:53:18;99817.44;;;21.20;58.69
73518;BME280;61766;60.318;25.044;2023-08-31T08:55:44;99813.62;;;20.71;58.62
73518;BME280;61766;60.318;25.044;2023-08-31T08:58:09;99806.39;;;21.84;56.91
73518;BME280;61766;60.318;25.044;2023-08-31T09:00:35;99814.48;;;21.60;57.20
73518;BME280;61766;60.318;25.044;2023-08-31T09:03:01;99812.89;;;21.46;57.39
73518;BME280;61766;60.318;25.044;2023-08-31T09:05:26;99809.44;;;22.20;56.22
73518;BME280;61766;60.318;25.044;2023-08-31T09:08:01;99810.21;;;21.51;56.78
73518;BME280;61766;60.318;25.044;2023-08-31T09:10:16;99816.10;;;21.10;57.62
73518;BME280;61766;60.318;25.044;2023-08-31T09:12:41;99810.19;;;21.76;56.72
73518;BME280;61766;60.318;25.044;2023-08-31T09:15:08;99813.81;;;21.88;56.01
73518;BME280;61766;60.318;25.044;2023-08-31T09:17:38;99811.48;;;21.69;56.30
73518;BME280;61766;60.318;25.044;2023-08-31T09:20:03;99814.65;;;21.85;55.88
73518;BME280;61766;60.318;25.044;2023-08-31T09:22:26;99819.61;;;20.66;58.54
73518;BME280;61766;60.318;25.044;2023-08-31T09:24:49;99818.44;;;21.45;57.95
73518;BME280;61766;60.318;25.044;2023-08-31T09:27:14;99815.61;;;21.04;58.65
73518;BME280;61766;60.318;25.044;2023-08-31T09:29:44;99814.64;;;20.84;58.75
73518;BME280;61766;60.318;25.044;2023-08-31T09:32:04;99816.38;;;20.76;58.89
73518;BME280;61766;60.318;25.044;2023-08-31T09:34:34;99812.32;;;21.18;57.93
73518;BME280;61766;60.318;25.044;2023-08-31T09:36:55;99806.06;;;21.30;57.18
73518;BME280;61766;60.318;25.044;2023-08-31T09:39:21;99818.34;;;21.34;58.05
73518;BME280;61766;60.318;25.044;2023-08-31T09:41:56;99820.50;;;19.73;61.58
73518;BME280;61766;60.318;25.044;2023-08-31T09:44:20;99812.95;;;20.84;59.37
73518;BME280;61766;60.318;25.044;2023-08-31T09:46:36;99816.66;;;20.68;59.68
73518;BME280;61766;60.318;25.044;2023-08-31T09:49:02;99810.11;;;20.60;59.88
73518;BME280;61766;60.318;25.044;2023-08-31T09:51:27;99805.73;;;20.29;60.34
73518;BME280;61766;60.318;25.044;2023-08-31T09:53:52;99806.46;;;21.04;59.33
73518;BME280;61766;60.318;25.044;2023-08-31T09:56:20;99805.60;;;20.45;60.12
73518;BME280;61766;60.318;25.044;2023-08-31T09:58:43;99805.53;;;20.39;60.86
73518;BME280;61766;60.318;25.044;2023-08-31T10:01:09;99802.46;;;20.57;60.33
73518;BME280;61766;60.318;25.044;2023-08-31T10:03:34;99802.87;;;20.88;59.61
73518;BME280;61766;60.318;25.044;2023-08-31T10:05:59;99803.02;;;20.95;60.08
73518;BME280;61766;60.318;25.044;2023-08-31T10:08:24;99799.61;;;20.58;60.05
73518;BME280;61766;60.318;25.044;2023-08-31T10:10:50;99801.72;;;20.43;60.51
73518;BME280;61766;60.318;25.044;2023-08-31T10:13:15;99800.09;;;20.04;61.42
73518;BME280;61766;60.318;25.044;2023-08-31T10:15:41;99797.63;;;20.28;60.71
73518;BME280;61766;60.318;25.044;2023-08-31T10:18:06;99802.30;;;20.41;61.33
73518;BME280;61766;60.318;25.044;2023-08-31T10:20:32;99790.85;;;20.52;61.48
73518;BME280;61766;60.318;25.044;2023-08-31T10:22:57;99788.56;;;20.90;60.56
73518;BME280;61766;60.318;25.044;2023-08-31T10:25:23;99788.85;;;20.34;61.34
73518;BME280;61766;60.318;25.044;2023-08-31T10:27:48;99783.04;;;19.93;62.17
73518;BME280;61766;60.318;25.044;2023-08-31T10:32:39;99784.18;;;20.50;60.33
73518;BME280;61766;60.318;25.044;2023-08-31T10:35:09;99781.94;;;20.94;59.16
73518;BME280;61766;60.318;25.044;2023-08-31T10:37:30;99781.40;;;20.28;61.34
73518;BME280;61766;60.318;25.044;2023-08-31T10:40:07;99782.43;;;20.62;60.58
73518;BME280;61766;60.318;25.044;2023-08-31T10:42:26;99780.79;;;21.10;59.13
73518;BME280;61766;60.318;25.044;2023-08-31T10:44:47;99785.51;;;20.13;60.97
73518;BME280;61766;60.318;25.044;2023-08-31T10:47:13;99781.13;;;19.96;61.59
73518;BME280;61766;60.318;25.044;2023-08-31T10:49:38;99782.76;;;20.48;60.88
73518;BME280;61766;60.318;25.044;2023-08-31T10:52:15;99780.24;;;19.99;61.48
73518;BME280;61766;60.318;25.044;2023-08-31T10:54:31;99772.35;;;20.63;60.74
73518;BME280;61766;60.318;25.044;2023-08-31T10:59:20;99771.94;;;20.36;61.89
73518;BME280;61766;60.318;25.044;2023-08-31T11:01:56;99778.02;;;20.65;60.82
73518;BME280;61766;60.318;25.044;2023-08-31T11:04:12;99777.11;;;19.78;63.65
73518;BME280;61766;60.318;25.044;2023-08-31T11:06:37;99773.49;;;19.98;63.20
73518;BME280;61766;60.318;25.044;2023-08-31T11:09:02;99768.02;;;19.42;64.90
73518;BME280;61766;60.318;25.044;2023-08-31T11:11:28;99769.68;;;20.19;62.31
73518;BME280;61766;60.318;25.044;2023-08-31T11:13:59;99769.42;;;20.27;62.09
73518;BME280;61766;60.318;25.044;2023-08-31T11:16:19;99765.71;;;19.71;63.27
73518;BME280;61766;60.318;25.044;2023-08-31T11:18:45;99764.49;;;20.06;63.53
73518;BME280;61766;60.318;25.044;2023-08-31T11:21:11;99766.76;;;20.03;63.80
73518;BME280;61766;60.318;25.044;2023-08-31T11:23:36;99763.38;;;19.78;64.21
73518;BME280;61766;60.318;25.044;2023-08-31T11:26:02;99757.64;;;20.11;62.83
73518;BME280;61766;60.318;25.044;2023-08-31T11:28:32;99767.06;;;19.77;64.57
73518;BME280;61766;60.318;25.044;2023-08-31T11:30:53;99759.59;;;20.29;63.35
73518;BME280;61766;60.318;25.044;2023-08-31T11:33:19;99761.78;;;20.37;63.23
73518;BME280;61766;60.318;25.044;2023-08-31T11:35:46;99758.42;;;20.82;61.79
73518;BME280;61766;60.318;25.044;2023-08-31T11:38:11;99763.47;;;20.00;62.87
73518;BME280;61766;60.318;25.044;2023-08-31T11:40:36;99762.56;;;20.02;64.29
73518;BME280;61766;60.318;25.044;2023-08-31T11:43:02;99756.24;;;20.39;62.15
73518;BME280;61766;60.318;25.044;2023-08-31T11:45:28;99757.97;;;20.48;62.76
73518;BME280;61766;60.318;25.044;2023-08-31T11:47:54;99762.74;;;19.95;63.90
73518;BME280;61766;60.318;25.044;2023-08-31T11:50:19;99761.91;;;19.39;66.83
73518;BME280;61766;60.318;25.044;2023-08-31T11:52:45;99763.67;;;19.80;64.62
73518;BME280;61766;60.318;25.044;2023-08-31T11:55:14;99759.61;;;19.74;65.89
73518;BME280;61766;60.318;25.044;2023-08-31T11:57:35;99759.83;;;19.21;66.91
73518;BME280;61766;60.318;25.044;2023-08-31T12:00:01;99766.17;;;20.13;64.28
73518;BME280;61766;60.318;25.044;2023-08-31T12:02:26;99769.90;;;19.98;64.02
73518;BME280;61766;60.318;25.044;2023-08-31T12:04:52;99768.35;;;20.81;62.27
73518;BME280;61766;60.318;25.044;2023-08-31T12:07:20;99760.80;;;20.73;61.81
73518;BME280;61766;60.318;25.044;2023-08-31T12:09:43;99763.78;;;20.67;62.50
73518;BME280;61766;60.318;25.044;2023-08-31T12:12:10;99763.93;;;19.96;62.12
73518;BME280;61766;60.318;25.044;2023-08-31T12:14:36;99764.96;;;20.53;62.94
73518;BME280;61766;60.318;25.044;2023-08-31T12:17:05;99764.38;;;20.92;62.53
73518;BME280;61766;60.318;25.044;2023-08-31T12:19:30;99764.33;;;19.97;63.99
73518;BME280;61766;60.318;25.044;2023-08-31T12:21:51;99767.60;;;20.61;62.98
73518;BME280;61766;60.318;25.044;2023-08-31T12:24:17;99764.59;;;20.60;63.10
73518;BME280;61766;60.318;25.044;2023-08-31T12:26:43;99762.80;;;21.13;61.26
73518;BME280;61766;60.318;25.044;2023-08-31T12:29:08;99766.40;;;20.66;60.40
73518;BME280;61766;60.318;25.044;2023-08-31T12:31:33;99763.90;;;21.37;59.64
73518;BME280;61766;60.318;25.044;2023-08-31T12:33:59;99768.72;;;21.55;59.49
73518;BME280;61766;60.318;25.044;2023-08-31T12:36:25;99784.54;;;20.74;61.09
73518;BME280;61766;60.318;25.044;2023-08-31T12:38:50;99789.96;;;20.69;60.71
73518;BME280;61766;60.318;25.044;2023-08-31T12:41:16;99792.98;;;21.35;59.42
73518;BME280;61766;60.318;25.044;2023-08-31T12:43:41;99798.08;;;20.49;60.50
73518;BME280;61766;60.318;25.044;2023-08-31T12:46:07;99799.49;;;20.92;60.78
73518;BME280;61766;60.318;25.044;2023-08-31T12:48:33;99802.00;;;20.60;62.09